sensor_id;sensor_type;location;lat;lon;timestamp;pressure;altitude;pressure_sealevel;temperature;humidity
23574;BME280;11965;53.640;10.050;2023-03-22T00:00:37;100767.97;;;7.35;100.00
23574;BME280;11965;53.640;10.050;2023-03-22T00:03:04;100763.66;;;7.40;100.00
23574;BME280;11965;53.640;10.050;2023-03-22T00:05:33;100761.72;;;7.49;100.00
23574;BME280;11965;53.640;10.050;2023-03-22T00:08:00;100758.09;;;7.57;100.00
23574;BME280;11965;53.640;10.050;2023-03-22T00:10:30;100762.72;;;7.64;100.00
23574;BME280;11965;53.640;10.050;2023-03-22T00:12:58;100755.81;;;7.68;100.00
23574;BME280;11965;53.640;10.050;2023-03-22T00:15:25;100757.13;;;7.81;100.00
23574;BME280;11965;53.640;10.050;2023-03-22T00:17:54;100746.59;;;7.84;100.00
23574;BME280;11965;53.640;10.050;2023-03-22T00:20:21;100742.63;;;7.87;100.00
23574;BME280;11965;53.640;10.050;2023-03-22T00:22:50;100740.88;;;7.94;100.00
23574;BME280;11965;53.640;10.050;2023-03-22T00:25:17;100743.47;;;7.95;100.00
23574;BME280;11965;53.640;10.050;2023-03-22T00:27:46;100724.47;;;8.01;100.00
23574;BME280;11965;53.640;10.050;2023-03-22T00:30:13;100723.91;;;8.05;100.00
23574;BME280;11965;53.640;10.050;2023-03-22T00:32:40;100721.13;;;8.05;100.00
23574;BME280;11965;53.640;10.050;2023-03-22T00:35:09;100717.19;;;8.00;100.00
23574;BME280;11965;53.640;10.050;2023-03-22T00:37:39;100725.31;;;8.01;100.00
23574;BME280;11965;53.640;10.050;2023-03-22T00:40:11;100725.16;;;7.94;100.00
23574;BME280;11965;53.640;10.050;2023-03-22T00:42:40;100720.38;;;7.88;100.00
23574;BME280;11965;53.640;10.050;2023-03-22T00:45:10;100725.25;;;7.78;100.00
23574;BME280;11965;53.640;10.050;2023-03-22T00:47:38;100716.97;;;7.78;100.00
23574;BME280;11965;53.640;10.050;2023-03-22T00:50:06;100713.88;;;7.73;100.00
23574;BME280;11965;53.640;10.050;2023-03-22T00:52:33;100711.13;;;7.73;100.00
23574;BME280;11965;53.640;10.050;2023-03-22T00:55:00;100719.94;;;7.77;100.00
23574;BME280;11965;53.640;10.050;2023-03-22T00:57:29;100715.72;;;7.89;100.00
23574;BME280;11965;53.640;10.050;2023-03-22T00:59:56;100715.19;;;7.93;100.00
23574;BME280;11965;53.640;10.050;2023-03-22T01:02:24;100710.66;;;8.01;100.00
23574;BME280;11965;53.640;10.050;2023-03-22T01:04:55;100707.91;;;8.01;100.00
23574;BME280;11965;53.640;10.050;2023-03-22T01:07:22;100702.50;;;8.07;100.00
23574;BME280;11965;53.640;10.050;2023-03-22T01:09:50;100702.97;;;8.11;100.00
23574;BME280;11965;53.640;10.050;2023-03-22T01:12:17;100695.59;;;8.11;100.00
23574;BME280;11965;53.640;10.050;2023-03-22T01:14:49;100687.31;;;8.11;100.00
23574;BME280;11965;53.640;10.050;2023-03-22T01:17:16;100683.66;;;8.11;100.00
23574;BME280;11965;53.640;10.050;2023-03-22T01:19:43;100685.09;;;8.07;100.00
23574;BME280;11965;53.640;10.050;2023-03-22T01:22:10;100688.53;;;8.09;100.00
23574;BME280;11965;53.640;10.050;2023-03-22T01:24:38;100678.44;;;8.16;100.00
23574;BME280;11965;53.640;10.050;2023-03-22T01:27:05;100674.66;;;8.17;100.00
23574;BME280;11965;53.640;10.050;2023-03-22T01:29:33;100663.63;;;8.17;100.00
23574;BME280;11965;53.640;10.050;2023-03-22T01:32:02;100670.31;;;8.23;100.00
23574;BME280;11965;53.640;10.050;2023-03-22T01:34:29;100660.28;;;8.22;100.00
23574;BME280;11965;53.640;10.050;2023-03-22T01:36:58;100672.69;;;8.26;100.00
23574;BME280;11965;53.640;10.050;2023-03-22T01:39:26;100669.47;;;8.22;100.00
23574;BME280;11965;53.640;10.050;2023-03-22T01:41:56;100660.28;;;8.22;100.00
23574;BME280;11965;53.640;10.050;2023-03-22T01:44:23;100647.38;;;8.22;100.00
23574;BME280;11965;53.640;10.050;2023-03-22T01:46:53;100656.13;;;8.26;100.00
23574;BME280;11965;53.640;10.050;2023-03-22T01:49:25;100649.56;;;8.27;100.00
23574;BME280;11965;53.640;10.050;2023-03-22T01:51:58;100640.03;;;8.29;100.00
23574;BME280;11965;53.640;10.050;2023-03-22T01:54:52;100639.66;;;8.32;100.00
23574;BME280;11965;53.640;10.050;2023-03-22T01:57:50;100636.25;;;8.30;100.00
23574;BME280;11965;53.640;10.050;2023-03-22T02:00:27;100625.56;;;8.27;100.00
23574;BME280;11965;53.640;10.050;2023-03-22T02:03:21;100633.66;;;8.29;100.00
23574;BME280;11965;53.640;10.050;2023-03-22T02:05:53;100623.78;;;8.34;100.00
23574;BME280;11965;53.640;10.050;2023-03-22T02:08:22;100619.69;;;8.30;100.00
23574;BME280;11965;53.640;10.050;2023-03-22T02:11:03;100626.25;;;8.29;100.00
23574;BME280;11965;53.640;10.050;2023-03-22T02:13:46;100616.72;;;8.32;100.00
23574;BME280;11965;53.640;10.050;2023-03-22T02:17:08;100618.16;;;8.28;100.00
23574;BME280;11965;53.640;10.050;2023-03-22T02:20:21;100623.31;;;8.31;100.00
23574;BME280;11965;53.640;10.050;2023-03-22T02:23:22;100610.19;;;8.33;100.00
23574;BME280;11965;53.640;10.050;2023-03-22T02:26:40;100612.81;;;8.26;100.00
23574;BME280;11965;53.640;10.050;2023-03-22T02:29:19;100606.91;;;8.29;100.00
23574;BME280;11965;53.640;10.050;2023-03-22T02:32:24;100612.63;;;8.28;100.00
23574;BME280;11965;53.640;10.050;2023-03-22T02:35:24;100617.84;;;8.23;100.00
23574;BME280;11965;53.640;10.050;2023-03-22T02:38:17;100601.16;;;8.16;100.00
23574;BME280;11965;53.640;10.050;2023-03-22T02:41:00;100591.53;;;8.12;100.00
23574;BME280;11965;53.640;10.050;2023-03-22T02:43:37;100591.53;;;8.12;100.00
23574;BME280;11965;53.640;10.050;2023-03-22T02:46:17;100590.13;;;8.16;100.00
23574;BME280;11965;53.640;10.050;2023-03-22T02:48:53;100585.66;;;8.15;100.00
23574;BME280;11965;53.640;10.050;2023-03-22T02:51:30;100593.56;;;8.18;100.00
23574;BME280;11965;53.640;10.050;2023-03-22T02:54:04;100589.94;;;8.17;100.00
23574;BME280;11965;53.640;10.050;2023-03-22T02:56:41;100592.19;;;8.14;100.00
23574;BME280;11965;53.640;10.050;2023-03-22T02:59:13;100586.66;;;8.14;100.00
23574;BME280;11965;53.640;10.050;2023-03-22T03:01:48;100586.66;;;8.14;100.00
23574;BME280;11965;53.640;10.050;2023-03-22T03:04:19;100576.88;;;8.11;100.00
23574;BME280;11965;53.640;10.050;2023-03-22T03:06:53;100578.75;;;8.11;100.00
23574;BME280;11965;53.640;10.050;2023-03-22T03:09:22;100582.41;;;8.11;100.00
23574;BME280;11965;53.640;10.050;2023-03-22T03:11:52;100580.13;;;8.15;100.00
23574;BME280;11965;53.640;10.050;2023-03-22T03:14:23;100583.91;;;8.14;100.00
23574;BME280;11965;53.640;10.050;2023-03-22T03:17:05;100580.97;;;8.15;100.00
23574;BME280;11965;53.640;10.050;2023-03-22T03:19:43;100573.53;;;8.16;100.00
23574;BME280;11965;53.640;10.050;2023-03-22T03:22:29;100568.41;;;8.13;100.00
23574;BME280;11965;53.640;10.050;2023-03-22T03:25:06;100568.88;;;8.16;100.00
23574;BME280;11965;53.640;10.050;2023-03-22T03:27:43;100571.47;;;8.18;100.00
23574;BME280;11965;53.640;10.050;2023-03-22T03:30:19;100548.03;;;8.14;100.00
23574;BME280;11965;53.640;10.050;2023-03-22T03:32:53;100561.97;;;8.21;100.00
23574;BME280;11965;53.640;10.050;2023-03-22T03:35:25;100558.13;;;8.22;100.00
23574;BME280;11965;53.640;10.050;2023-03-22T03:37:57;100556.59;;;8.19;100.00
23574;BME280;11965;53.640;10.050;2023-03-22T03:40:28;100555.00;;;8.25;100.00
23574;BME280;11965;53.640;10.050;2023-03-22T03:43:02;100554.34;;;8.23;100.00
23574;BME280;11965;53.640;10.050;2023-03-22T03:45:31;100548.06;;;8.29;100.00
23574;BME280;11965;53.640;10.050;2023-03-22T03:48:03;100550.84;;;8.29;100.00
23574;BME280;11965;53.640;10.050;2023-03-22T03:50:31;100545.78;;;8.32;100.00
23574;BME280;11965;53.640;10.050;2023-03-22T03:52:58;100549.44;;;8.33;100.00
23574;BME280;11965;53.640;10.050;2023-03-22T03:55:27;100550.84;;;8.29;100.00
23574;BME280;11965;53.640;10.050;2023-03-22T03:57:55;100551.69;;;8.29;100.00
23574;BME280;11965;53.640;10.050;2023-03-22T04:00:23;100543.41;;;8.29;100.00
23574;BME280;11965;53.640;10.050;2023-03-22T04:03:20;100552.84;;;8.35;100.00
23574;BME280;11965;53.640;10.050;2023-03-22T04:06:16;100558.06;;;8.30;100.00
23574;BME280;11965;53.640;10.050;2023-03-22T04:08:48;100545.13;;;8.30;100.00
23574;BME280;11965;53.640;10.050;2023-03-22T04:11:20;100547.91;;;8.30;100.00
23574;BME280;11965;53.640;10.050;2023-03-22T04:13:51;100542.66;;;8.35;100.00
23574;BME280;11965;53.640;10.050;2023-03-22T04:16:22;100541.78;;;8.35;100.00
23574;BME280;11965;53.640;10.050;2023-03-22T04:18:50;100539.88;;;8.44;100.00
23574;BME280;11965;53.640;10.050;2023-03-22T04:21:18;100547.09;;;8.45;100.00
23574;BME280;11965;53.640;10.050;2023-03-22T04:23:53;100542.88;;;8.49;100.00
23574;BME280;11965;53.640;10.050;2023-03-22T04:26:21;100545.47;;;8.50;100.00
23574;BME280;11965;53.640;10.050;2023-03-22T04:29:00;100536.91;;;8.45;100.00
23574;BME280;11965;53.640;10.050;2023-03-22T04:31:31;100534.69;;;8.40;100.00
23574;BME280;11965;53.640;10.050;2023-03-22T04:34:04;100534.25;;;8.52;100.00
23574;BME280;11965;53.640;10.050;2023-03-22T04:36:50;100526.91;;;8.59;100.00
23574;BME280;11965;53.640;10.050;2023-03-22T04:39:25;100530.91;;;8.56;100.00
23574;BME280;11965;53.640;10.050;2023-03-22T04:42:15;100531.84;;;8.49;100.00
23574;BME280;11965;53.640;10.050;2023-03-22T04:44:42;100523.75;;;8.47;100.00
23574;BME280;11965;53.640;10.050;2023-03-22T04:47:11;100518.53;;;8.52;100.00
23574;BME280;11965;53.640;10.050;2023-03-22T04:49:38;100521.38;;;8.59;100.00
23574;BME280;11965;53.640;10.050;2023-03-22T04:52:05;100526.91;;;8.59;100.00
23574;BME280;11965;53.640;10.050;2023-03-22T04:54:34;100528.53;;;8.53;100.00
23574;BME280;11965;53.640;10.050;2023-03-22T04:57:01;100520.72;;;8.42;100.00
23574;BME280;11965;53.640;10.050;2023-03-22T04:59:33;100523.53;;;8.34;100.00
23574;BME280;11965;53.640;10.050;2023-03-22T05:02:00;100520.31;;;8.45;100.00
23574;BME280;11965;53.640;10.050;2023-03-22T05:04:35;100516.41;;;8.39;100.00
23574;BME280;11965;53.640;10.050;2023-03-22T05:07:13;100521.47;;;8.51;100.00
23574;BME280;11965;53.640;10.050;2023-03-22T05:09:46;100518.53;;;8.52;100.00
23574;BME280;11965;53.640;10.050;2023-03-22T05:12:14;100515.00;;;8.44;100.00
23574;BME280;11965;53.640;10.050;2023-03-22T05:14:47;100515.34;;;8.40;100.00
23574;BME280;11965;53.640;10.050;2023-03-22T05:17:19;100510.63;;;8.49;100.00
23574;BME280;11965;53.640;10.050;2023-03-22T05:19:49;100528.13;;;8.56;100.00
23574;BME280;11965;53.640;10.050;2023-03-22T05:22:17;100523.13;;;8.60;100.00
23574;BME280;11965;53.640;10.050;2023-03-22T05:24:49;100517.00;;;8.65;100.00
23574;BME280;11965;53.640;10.050;2023-03-22T05:27:21;100522.13;;;8.68;100.00
23574;BME280;11965;53.640;10.050;2023-03-22T05:29:57;100526.53;;;8.77;100.00
23574;BME280;11965;53.640;10.050;2023-03-22T05:32:34;100531.22;;;8.76;100.00
23574;BME280;11965;53.640;10.050;2023-03-22T05:35:05;100526.91;;;8.74;100.00
23574;BME280;11965;53.640;10.050;2023-03-22T05:37:36;100535.59;;;8.71;100.00
23574;BME280;11965;53.640;10.050;2023-03-22T05:40:04;100531.78;;;8.72;100.00
23574;BME280;11965;53.640;10.050;2023-03-22T05:42:43;100537.97;;;8.74;100.00
23574;BME280;11965;53.640;10.050;2023-03-22T05:45:21;100534.25;;;8.81;100.00
23574;BME280;11965;53.640;10.050;2023-03-22T05:48:00;100534.56;;;8.87;100.00
23574;BME280;11965;53.640;10.050;2023-03-22T05:50:31;100535.56;;;8.85;100.00
23574;BME280;11965;53.640;10.050;2023-03-22T05:52:59;100528.13;;;8.86;100.00
23574;BME280;11965;53.640;10.050;2023-03-22T05:55:41;100525.19;;;8.88;100.00
23574;BME280;11965;53.640;10.050;2023-03-22T05:58:09;100523.84;;;8.98;100.00
23574;BME280;11965;53.640;10.050;2023-03-22T06:00:38;100528.13;;;9.01;100.00
23574;BME280;11965;53.640;10.050;2023-03-22T06:03:24;100522.41;;;9.02;100.00
23574;BME280;11965;53.640;10.050;2023-03-22T06:06:00;100527.94;;;9.02;100.00
23574;BME280;11965;53.640;10.050;2023-03-22T06:08:42;100532.78;;;9.15;100.00
23574;BME280;11965;53.640;10.050;2023-03-22T06:11:09;100524.97;;;9.19;100.00
23574;BME280;11965;53.640;10.050;2023-03-22T06:13:36;100520.47;;;9.18;100.00
23574;BME280;11965;53.640;10.050;2023-03-22T06:16:04;100519.81;;;9.16;100.00
23574;BME280;11965;53.640;10.050;2023-03-22T06:18:31;100505.34;;;9.14;100.00
23574;BME280;11965;53.640;10.050;2023-03-22T06:21:06;100502.19;;;9.17;100.00
23574;BME280;11965;53.640;10.050;2023-03-22T06:23:33;100507.13;;;9.21;100.00
23574;BME280;11965;53.640;10.050;2023-03-22T06:26:00;100508.50;;;9.32;100.00
23574;BME280;11965;53.640;10.050;2023-03-22T06:28:28;100503.53;;;9.42;100.00
23574;BME280;11965;53.640;10.050;2023-03-22T06:30:57;100515.16;;;9.52;100.00
23574;BME280;11965;53.640;10.050;2023-03-22T06:33:36;100514.63;;;9.64;100.00
23574;BME280;11965;53.640;10.050;2023-03-22T06:36:16;100503.09;;;9.82;100.00
23574;BME280;11965;53.640;10.050;2023-03-22T06:39:06;100511.53;;;9.95;100.00
23574;BME280;11965;53.640;10.050;2023-03-22T06:41:33;100506.84;;;9.95;100.00
23574;BME280;11965;53.640;10.050;2023-03-22T06:44:00;100517.31;;;10.00;100.00
23574;BME280;11965;53.640;10.050;2023-03-22T06:46:54;100515.00;;;10.04;100.00
23574;BME280;11965;53.640;10.050;2023-03-22T06:49:41;100516.25;;;10.01;100.00
23574;BME280;11965;53.640;10.050;2023-03-22T06:52:15;100520.09;;;10.00;100.00
23574;BME280;11965;53.640;10.050;2023-03-22T06:54:41;100521.66;;;10.09;100.00
23574;BME280;11965;53.640;10.050;2023-03-22T06:57:09;100510.97;;;10.06;100.00
23574;BME280;11965;53.640;10.050;2023-03-22T06:59:36;100524.44;;;10.09;100.00
23574;BME280;11965;53.640;10.050;2023-03-22T07:02:03;100513.16;;;10.11;100.00
23574;BME280;11965;53.640;10.050;2023-03-22T07:04:30;100513.34;;;10.09;100.00
23574;BME280;11965;53.640;10.050;2023-03-22T07:06:58;100512.16;;;10.18;100.00
23574;BME280;11965;53.640;10.050;2023-03-22T07:09:27;100509.44;;;10.25;100.00
23574;BME280;11965;53.640;10.050;2023-03-22T07:11:57;100505.97;;;10.16;100.00
23574;BME280;11965;53.640;10.050;2023-03-22T07:14:24;100509.31;;;10.12;100.00
23574;BME280;11965;53.640;10.050;2023-03-22T07:17:18;100506.78;;;10.10;100.00
23574;BME280;11965;53.640;10.050;2023-03-22T07:19:44;100503.19;;;10.16;100.00
23574;BME280;11965;53.640;10.050;2023-03-22T07:22:12;100500.75;;;10.28;100.00
23574;BME280;11965;53.640;10.050;2023-03-22T07:24:42;100493.16;;;10.37;100.00
23574;BME280;11965;53.640;10.050;2023-03-22T07:27:10;100483.56;;;10.39;100.00
23574;BME280;11965;53.640;10.050;2023-03-22T07:29:37;100488.75;;;10.49;100.00
23574;BME280;11965;53.640;10.050;2023-03-22T07:32:05;100477.22;;;10.46;100.00
23574;BME280;11965;53.640;10.050;2023-03-22T07:34:50;100473.84;;;10.50;100.00
23574;BME280;11965;53.640;10.050;2023-03-22T07:37:18;100477.47;;;10.51;100.00
23574;BME280;11965;53.640;10.050;2023-03-22T07:39:46;100475.91;;;10.42;100.00
23574;BME280;11965;53.640;10.050;2023-03-22T07:42:13;100481.94;;;10.45;100.00
23574;BME280;11965;53.640;10.050;2023-03-22T07:45:07;100476.41;;;10.52;100.00
23574;BME280;11965;53.640;10.050;2023-03-22T07:47:42;100479.63;;;10.55;100.00
23574;BME280;11965;53.640;10.050;2023-03-22T07:50:39;100468.19;;;10.72;100.00
23574;BME280;11965;53.640;10.050;2023-03-22T07:53:06;100464.03;;;10.89;100.00
23574;BME280;11965;53.640;10.050;2023-03-22T07:55:35;100464.16;;;11.16;100.00
23574;BME280;11965;53.640;10.050;2023-03-22T07:58:03;100449.00;;;11.25;100.00
23574;BME280;11965;53.640;10.050;2023-03-22T08:00:31;100447.94;;;11.19;100.00
23574;BME280;11965;53.640;10.050;2023-03-22T08:03:18;100439.34;;;11.01;100.00
23574;BME280;11965;53.640;10.050;2023-03-22T08:06:07;100434.25;;;11.04;100.00
23574;BME280;11965;53.640;10.050;2023-03-22T08:08:37;100422.47;;;10.96;100.00
23574;BME280;11965;53.640;10.050;2023-03-22T08:11:06;100419.91;;;10.94;100.00
23574;BME280;11965;53.640;10.050;2023-03-22T08:13:33;100406.25;;;10.93;100.00
23574;BME280;11965;53.640;10.050;2023-03-22T08:16:00;100411.59;;;11.01;100.00
23574;BME280;11965;53.640;10.050;2023-03-22T08:18:29;100400.31;;;11.09;100.00
23574;BME280;11965;53.640;10.050;2023-03-22T08:20:57;100401.03;;;11.31;100.00
23574;BME280;11965;53.640;10.050;2023-03-22T08:23:28;100399.56;;;11.48;100.00
23574;BME280;11965;53.640;10.050;2023-03-22T08:26:15;100396.13;;;11.40;100.00
23574;BME280;11965;53.640;10.050;2023-03-22T08:28:42;100387.78;;;11.33;100.00
23574;BME280;11965;53.640;10.050;2023-03-22T08:31:10;100385.88;;;11.20;100.00
23574;BME280;11965;53.640;10.050;2023-03-22T08:33:37;100381.16;;;11.21;100.00
23574;BME280;11965;53.640;10.050;2023-03-22T08:36:06;100370.09;;;11.34;100.00
23574;BME280;11965;53.640;10.050;2023-03-22T08:38:39;100376.72;;;11.60;100.00
23574;BME280;11965;53.640;10.050;2023-03-22T08:41:07;100385.47;;;11.70;100.00
23574;BME280;11965;53.640;10.050;2023-03-22T08:43:35;100374.38;;;11.63;100.00
23574;BME280;11965;53.640;10.050;2023-03-22T08:46:03;100379.06;;;11.83;98.96
23574;BME280;11965;53.640;10.050;2023-03-22T08:48:29;100374.09;;;12.25;98.24
23574;BME280;11965;53.640;10.050;2023-03-22T08:51:06;100376.31;;;12.74;94.77
23574;BME280;11965;53.640;10.050;2023-03-22T08:53:48;100365.25;;;13.06;90.78
23574;BME280;11965;53.640;10.050;2023-03-22T08:56:46;100364.03;;;12.89;87.25
23574;BME280;11965;53.640;10.050;2023-03-22T08:59:31;100359.97;;;12.91;90.99
23574;BME280;11965;53.640;10.050;2023-03-22T09:02:17;100366.66;;;13.22;89.57
23574;BME280;11965;53.640;10.050;2023-03-22T09:04:44;100361.09;;;13.22;88.16
23574;BME280;11965;53.640;10.050;2023-03-22T09:07:12;100350.34;;;13.25;85.85
23574;BME280;11965;53.640;10.050;2023-03-22T09:09:41;100347.56;;;13.25;89.14
23574;BME280;11965;53.640;10.050;2023-03-22T09:12:09;100358.75;;;13.51;85.74
23574;BME280;11965;53.640;10.050;2023-03-22T09:14:37;100346.44;;;13.65;88.07
23574;BME280;11965;53.640;10.050;2023-03-22T09:17:04;100352.13;;;13.77;82.33
23574;BME280;11965;53.640;10.050;2023-03-22T09:19:31;100339.38;;;13.87;82.02
23574;BME280;11965;53.640;10.050;2023-03-22T09:21:58;100352.91;;;13.84;82.39
23574;BME280;11965;53.640;10.050;2023-03-22T09:24:45;100354.63;;;13.60;82.86
23574;BME280;11965;53.640;10.050;2023-03-22T09:27:12;100344.53;;;13.59;81.02
23574;BME280;11965;53.640;10.050;2023-03-22T09:29:41;100342.59;;;13.59;82.64
23574;BME280;11965;53.640;10.050;2023-03-22T09:32:13;100340.56;;;13.48;84.60
23574;BME280;11965;53.640;10.050;2023-03-22T09:34:40;100333.34;;;13.40;79.47
23574;BME280;11965;53.640;10.050;2023-03-22T09:37:07;100336.13;;;13.40;79.52
23574;BME280;11965;53.640;10.050;2023-03-22T09:39:42;100336.38;;;13.64;81.04
23574;BME280;11965;53.640;10.050;2023-03-22T09:42:21;100331.47;;;13.34;82.76
23574;BME280;11965;53.640;10.050;2023-03-22T09:44:52;100321.59;;;13.38;79.91
23574;BME280;11965;53.640;10.050;2023-03-22T09:47:32;100324.03;;;13.53;82.68
23574;BME280;11965;53.640;10.050;2023-03-22T09:50:06;100318.44;;;13.60;80.13
23574;BME280;11965;53.640;10.050;2023-03-22T09:52:34;100317.16;;;13.56;77.46
23574;BME280;11965;53.640;10.050;2023-03-22T09:55:01;100304.03;;;13.38;80.11
23574;BME280;11965;53.640;10.050;2023-03-22T09:57:32;100326.47;;;13.11;81.01
23574;BME280;11965;53.640;10.050;2023-03-22T10:00:13;100324.91;;;13.22;82.30
23574;BME280;11965;53.640;10.050;2023-03-22T10:02:54;100315.22;;;13.31;80.32
23574;BME280;11965;53.640;10.050;2023-03-22T10:05:33;100316.69;;;13.34;80.81
23574;BME280;11965;53.640;10.050;2023-03-22T10:08:29;100302.59;;;13.54;79.85
23574;BME280;11965;53.640;10.050;2023-03-22T10:10:59;100305.22;;;13.74;80.18
23574;BME280;11965;53.640;10.050;2023-03-22T10:13:33;100295.34;;;13.96;76.09
23574;BME280;11965;53.640;10.050;2023-03-22T10:16:10;100308.22;;;13.97;75.54
23574;BME280;11965;53.640;10.050;2023-03-22T10:18:40;100301.47;;;14.05;76.11
23574;BME280;11965;53.640;10.050;2023-03-22T10:21:13;100298.47;;;14.06;73.96
23574;BME280;11965;53.640;10.050;2023-03-22T10:23:45;100301.84;;;13.90;76.25
23574;BME280;11965;53.640;10.050;2023-03-22T10:26:19;100305.91;;;13.69;75.69
23574;BME280;11965;53.640;10.050;2023-03-22T10:28:55;100311.56;;;13.62;74.48
23574;BME280;11965;53.640;10.050;2023-03-22T10:31:26;100320.56;;;13.83;76.06
23574;BME280;11965;53.640;10.050;2023-03-22T10:33:57;100305.94;;;13.87;74.55
23574;BME280;11965;53.640;10.050;2023-03-22T10:36:29;100316.84;;;13.70;72.74
23574;BME280;11965;53.640;10.050;2023-03-22T10:39:03;100303.50;;;13.73;76.10
23574;BME280;11965;53.640;10.050;2023-03-22T10:41:35;100308.00;;;13.74;75.00
23574;BME280;11965;53.640;10.050;2023-03-22T10:44:04;100319.34;;;13.97;72.38
23574;BME280;11965;53.640;10.050;2023-03-22T10:46:37;100311.69;;;13.92;73.35
23574;BME280;11965;53.640;10.050;2023-03-22T10:49:06;100309.63;;;14.25;72.67
23574;BME280;11965;53.640;10.050;2023-03-22T10:51:42;100311.88;;;14.16;70.87
23574;BME280;11965;53.640;10.050;2023-03-22T10:54:12;100308.47;;;14.32;74.10
23574;BME280;11965;53.640;10.050;2023-03-22T10:56:41;100306.34;;;14.46;74.25
23574;BME280;11965;53.640;10.050;2023-03-22T10:59:40;100307.34;;;14.52;71.09
23574;BME280;11965;53.640;10.050;2023-03-22T11:02:18;100316.81;;;14.69;68.14
23574;BME280;11965;53.640;10.050;2023-03-22T11:04:50;100315.13;;;14.68;66.40
23574;BME280;11965;53.640;10.050;2023-03-22T11:07:33;100313.31;;;14.37;66.14
23574;BME280;11965;53.640;10.050;2023-03-22T11:10:16;100308.31;;;14.27;69.14
23574;BME280;11965;53.640;10.050;2023-03-22T11:12:49;100313.94;;;14.39;68.18
23574;BME280;11965;53.640;10.050;2023-03-22T11:15:24;100312.72;;;14.17;69.17
23574;BME280;11965;53.640;10.050;2023-03-22T11:17:58;100307.66;;;14.44;68.94
23574;BME280;11965;53.640;10.050;2023-03-22T11:20:29;100315.16;;;14.80;67.57
23574;BME280;11965;53.640;10.050;2023-03-22T11:23:03;100313.09;;;14.75;66.90
23574;BME280;11965;53.640;10.050;2023-03-22T11:25:34;100334.31;;;14.76;66.92
23574;BME280;11965;53.640;10.050;2023-03-22T11:28:15;100320.16;;;14.60;63.41
23574;BME280;11965;53.640;10.050;2023-03-22T11:30:59;100321.06;;;14.72;65.11
23574;BME280;11965;53.640;10.050;2023-03-22T11:33:27;100322.47;;;14.44;67.06
23574;BME280;11965;53.640;10.050;2023-03-22T11:35:56;100317.88;;;14.31;68.06
23574;BME280;11965;53.640;10.050;2023-03-22T11:38:26;100326.25;;;14.50;67.35
23574;BME280;11965;53.640;10.050;2023-03-22T11:40:59;100319.06;;;14.61;66.08
23574;BME280;11965;53.640;10.050;2023-03-22T11:43:32;100323.44;;;14.56;64.66
23574;BME280;11965;53.640;10.050;2023-03-22T11:46:00;100320.44;;;14.14;67.09
23574;BME280;11965;53.640;10.050;2023-03-22T11:48:31;100319.44;;;14.09;68.20
23574;BME280;11965;53.640;10.050;2023-03-22T11:51:06;100320.13;;;14.04;69.31
23574;BME280;11965;53.640;10.050;2023-03-22T11:53:37;100314.88;;;14.33;68.67
23574;BME280;11965;53.640;10.050;2023-03-22T11:56:07;100320.31;;;14.65;67.71
23574;BME280;11965;53.640;10.050;2023-03-22T11:58:53;100327.88;;;14.39;66.36
23574;BME280;11965;53.640;10.050;2023-03-22T12:01:33;100309.38;;;14.63;65.73
23574;BME280;11965;53.640;10.050;2023-03-22T12:04:08;100306.50;;;14.51;66.23
23574;BME280;11965;53.640;10.050;2023-03-22T12:06:39;100299.22;;;14.69;64.42
23574;BME280;11965;53.640;10.050;2023-03-22T12:09:17;100305.44;;;14.52;63.80
23574;BME280;11965;53.640;10.050;2023-03-22T12:11:51;100300.88;;;14.58;65.93
23574;BME280;11965;53.640;10.050;2023-03-22T12:14:23;100294.59;;;14.26;64.45
23574;BME280;11965;53.640;10.050;2023-03-22T12:16:56;100301.63;;;14.28;64.26
23574;BME280;11965;53.640;10.050;2023-03-22T12:19:47;100297.69;;;14.18;64.99
23574;BME280;11965;53.640;10.050;2023-03-22T12:22:20;100307.63;;;14.32;64.11
23574;BME280;11965;53.640;10.050;2023-03-22T12:24:48;100299.31;;;14.25;63.25
23574;BME280;11965;53.640;10.050;2023-03-22T12:27:22;100289.78;;;14.33;65.14
23574;BME280;11965;53.640;10.050;2023-03-22T12:29:56;100291.16;;;14.42;64.58
23574;BME280;11965;53.640;10.050;2023-03-22T12:32:27;100298.63;;;14.30;64.77
23574;BME280;11965;53.640;10.050;2023-03-22T12:34:56;100290.63;;;14.15;64.32
23574;BME280;11965;53.640;10.050;2023-03-22T12:37:28;100297.31;;;14.14;67.62
23574;BME280;11965;53.640;10.050;2023-03-22T12:40:02;100289.63;;;13.91;68.82
23574;BME280;11965;53.640;10.050;2023-03-22T12:42:37;100297.13;;;13.90;66.14
23574;BME280;11965;53.640;10.050;2023-03-22T12:45:13;100285.72;;;13.74;67.47
23574;BME280;11965;53.640;10.050;2023-03-22T12:47:44;100281.69;;;13.69;68.44
23574;BME280;11965;53.640;10.050;2023-03-22T12:50:18;100288.28;;;13.75;68.62
23574;BME280;11965;53.640;10.050;2023-03-22T12:52:49;100283.75;;;13.99;65.97
23574;BME280;11965;53.640;10.050;2023-03-22T12:55:21;100292.66;;;13.89;68.40
23574;BME280;11965;53.640;10.050;2023-03-22T12:57:52;100290.91;;;13.45;71.53
23574;BME280;11965;53.640;10.050;2023-03-22T13:00:26;100305.28;;;13.10;74.96
23574;BME280;11965;53.640;10.050;2023-03-22T13:02:58;100295.88;;;12.79;80.68
23574;BME280;11965;53.640;10.050;2023-03-22T13:05:32;100301.94;;;12.63;80.28
23574;BME280;11965;53.640;10.050;2023-03-22T13:07:59;100316.50;;;12.52;82.30
23574;BME280;11965;53.640;10.050;2023-03-22T13:10:56;100319.03;;;12.15;86.61